sensor_id;sensor_type;location;lat;lon;timestamp;temperature;humidity
29255;DHT22;16277;48.890;2.306;2023-03-01T00:08:04;9.70;60.30
29255;DHT22;16277;48.890;2.306;2023-03-01T00:23:09;9.50;61.40
29255;DHT22;16277;48.890;2.306;2023-03-01T00:38:14;9.50;61.90
29255;DHT22;16277;48.890;2.306;2023-03-01T00:53:18;9.60;62.00
29255;DHT22;16277;48.890;2.306;2023-03-01T01:08:23;9.30;62.70
29255;DHT22;16277;48.890;2.306;2023-03-01T01:23:27;9.30;63.20
29255;DHT22;16277;48.890;2.306;2023-03-01T01:38:32;9.30;63.30
29255;DHT22;16277;48.890;2.306;2023-03-01T01:53:37;9.10;63.60
29255;DHT22;16277;48.890;2.306;2023-03-01T02:08:44;9.10;63.70
29255;DHT22;16277;48.890;2.306;2023-03-01T02:23:50;9.00;64.50
29255;DHT22;16277;48.890;2.306;2023-03-01T02:38:58;9.00;64.50
29255;DHT22;16277;48.890;2.306;2023-03-01T02:54:15;9.00;64.40
29255;DHT22;16277;48.890;2.306;2023-03-01T03:09:20;9.00;64.70
29255;DHT22;16277;48.890;2.306;2023-03-01T03:24:25;8.70;65.40
29255;DHT22;16277;48.890;2.306;2023-03-01T03:39:30;8.80;65.50
29255;DHT22;16277;48.890;2.306;2023-03-01T03:54:38;8.60;67.00
29255;DHT22;16277;48.890;2.306;2023-03-01T04:09:42;8.70;67.40
29255;DHT22;16277;48.890;2.306;2023-03-01T04:24:47;8.50;67.50
29255;DHT22;16277;48.890;2.306;2023-03-01T04:39:52;8.50;68.30
29255;DHT22;16277;48.890;2.306;2023-03-01T04:54:56;8.00;68.80
29255;DHT22;16277;48.890;2.306;2023-03-01T05:10:01;8.10;69.60
29255;DHT22;16277;48.890;2.306;2023-03-01T05:25:06;8.20;70.40
29255;DHT22;16277;48.890;2.306;2023-03-01T05:40:14;8.20;69.50
29255;DHT22;16277;48.890;2.306;2023-03-01T05:55:20;8.10;70.60
29255;DHT22;16277;48.890;2.306;2023-03-01T06:10:25;8.30;70.10
29255;DHT22;16277;48.890;2.306;2023-03-01T06:25:29;8.20;71.40
29255;DHT22;16277;48.890;2.306;2023-03-01T06:40:34;8.00;71.70
29255;DHT22;16277;48.890;2.306;2023-03-01T06:55:39;7.80;72.90
29255;DHT22;16277;48.890;2.306;2023-03-01T07:10:43;7.80;72.90
29255;DHT22;16277;48.890;2.306;2023-03-01T07:25:52;8.00;72.40
29255;DHT22;16277;48.890;2.306;2023-03-01T07:40:59;7.70;74.00
29255;DHT22;16277;48.890;2.306;2023-03-01T07:56:06;8.10;72.50
29255;DHT22;16277;48.890;2.306;2023-03-01T08:11:12;8.40;72.20
29255;DHT22;16277;48.890;2.306;2023-03-01T08:26:19;8.10;73.00
29255;DHT22;16277;48.890;2.306;2023-03-01T08:41:24;7.70;74.00
29255;DHT22;16277;48.890;2.306;2023-03-01T08:56:28;8.20;72.80
29255;DHT22;16277;48.890;2.306;2023-03-01T09:11:33;8.60;72.10
29255;DHT22;16277;48.890;2.306;2023-03-01T09:26:38;8.70;72.00
29255;DHT22;16277;48.890;2.306;2023-03-01T09:41:49;9.40;70.80
29255;DHT22;16277;48.890;2.306;2023-03-01T09:57:03;9.70;69.00
29255;DHT22;16277;48.890;2.306;2023-03-01T10:12:11;9.20;69.70
29255;DHT22;16277;48.890;2.306;2023-03-01T10:27:20;9.90;68.20
29255;DHT22;16277;48.890;2.306;2023-03-01T10:42:32;10.20;68.30
29255;DHT22;16277;48.890;2.306;2023-03-01T10:57:39;10.10;69.30
29255;DHT22;16277;48.890;2.306;2023-03-01T11:12:45;10.10;68.10
29255;DHT22;16277;48.890;2.306;2023-03-01T11:27:50;10.10;67.40
29255;DHT22;16277;48.890;2.306;2023-03-01T11:43:02;10.80;66.20
29255;DHT22;16277;48.890;2.306;2023-03-01T11:58:25;11.80;62.80
29255;DHT22;16277;48.890;2.306;2023-03-01T12:14:01;11.40;63.10
29255;DHT22;16277;48.890;2.306;2023-03-01T12:29:24;12.50;62.30
29255;DHT22;16277;48.890;2.306;2023-03-01T12:44:40;12.10;63.70
29255;DHT22;16277;48.890;2.306;2023-03-01T13:00:00;12.60;60.90
29255;DHT22;16277;48.890;2.306;2023-03-01T13:30:43;13.20;60.50
29255;DHT22;16277;48.890;2.306;2023-03-01T13:45:48;12.50;61.50
29255;DHT22;16277;48.890;2.306;2023-03-01T14:00:58;12.40;63.00
29255;DHT22;16277;48.890;2.306;2023-03-01T14:16:16;14.20;59.60
29255;DHT22;16277;48.890;2.306;2023-03-01T14:31:47;14.30;59.60
29255;DHT22;16277;48.890;2.306;2023-03-01T14:46:56;13.60;59.80
29255;DHT22;16277;48.890;2.306;2023-03-01T15:02:01;16.40;56.40
29255;DHT22;16277;48.890;2.306;2023-03-01T15:17:21;15.60;56.60
29255;DHT22;16277;48.890;2.306;2023-03-01T15:32:31;17.90;53.40
29255;DHT22;16277;48.890;2.306;2023-03-01T15:47:38;17.10;53.40
29255;DHT22;16277;48.890;2.306;2023-03-01T16:02:44;16.90;53.70
29255;DHT22;16277;48.890;2.306;2023-03-01T16:17:50;16.00;55.10
29255;DHT22;16277;48.890;2.306;2023-03-01T16:32:57;14.40;57.70
29255;DHT22;16277;48.890;2.306;2023-03-01T16:48:03;13.80;59.20
29255;DHT22;16277;48.890;2.306;2023-03-01T17:03:08;13.60;59.60
29255;DHT22;16277;48.890;2.306;2023-03-01T17:18:12;12.90;60.20
29255;DHT22;16277;48.890;2.306;2023-03-01T17:33:17;12.70;61.50
29255;DHT22;16277;48.890;2.306;2023-03-01T17:48:22;12.80;61.20
29255;DHT22;16277;48.890;2.306;2023-03-01T18:03:27;12.70;61.60
29255;DHT22;16277;48.890;2.306;2023-03-01T18:18:32;12.40;61.50
29255;DHT22;16277;48.890;2.306;2023-03-01T18:33:38;12.30;61.40
29255;DHT22;16277;48.890;2.306;2023-03-01T18:48:42;12.10;61.60
29255;DHT22;16277;48.890;2.306;2023-03-01T19:03:47;12.10;61.70
29255;DHT22;16277;48.890;2.306;2023-03-01T19:18:54;11.70;62.30
29255;DHT22;16277;48.890;2.306;2023-03-01T19:33:59;11.90;61.50
29255;DHT22;16277;48.890;2.306;2023-03-01T19:49:13;11.90;62.70
29255;DHT22;16277;48.890;2.306;2023-03-01T20:04:18;11.70;62.00
29255;DHT22;16277;48.890;2.306;2023-03-01T20:19:23;11.10;63.50
29255;DHT22;16277;48.890;2.306;2023-03-01T20:34:27;11.20;62.80
29255;DHT22;16277;48.890;2.306;2023-03-01T20:49:32;11.10;63.50
29255;DHT22;16277;48.890;2.306;2023-03-01T21:04:36;11.10;63.60
29255;DHT22;16277;48.890;2.306;2023-03-01T21:19:42;11.20;63.80
29255;DHT22;16277;48.890;2.306;2023-03-01T21:34:47;11.20;64.40
29255;DHT22;16277;48.890;2.306;2023-03-01T21:49:51;11.10;64.60
29255;DHT22;16277;48.890;2.306;2023-03-01T22:04:56;11.10;64.40
29255;DHT22;16277;48.890;2.306;2023-03-01T22:20:00;10.80;65.30
29255;DHT22;16277;48.890;2.306;2023-03-01T22:35:06;11.00;65.30
29255;DHT22;16277;48.890;2.306;2023-03-01T22:50:13;10.60;66.00
29255;DHT22;16277;48.890;2.306;2023-03-01T23:05:18;10.60;66.20
29255;DHT22;16277;48.890;2.306;2023-03-01T23:20:23;10.30;67.00
29255;DHT22;16277;48.890;2.306;2023-03-01T23:35:27;10.60;67.00
29255;DHT22;16277;48.890;2.306;2023-03-01T23:50:35;10.30;67.30
